Chita-Kadala Airport
UIAA : now visible

Airfield :











YOU CAN JOIN US ON...

 
LOGIN :

Register | Disclaimer

   EN    FR    IT 

 









Legend :    VFR   Marginal VFR   IFR   Intensive IFR   Very Intensive IFR
Visi :
Ceiling :
>= 8 km
>= 3000ft
5 to 8 km
1000 to 3000 ft
1500m to 5 km
500 to 1000 ft
800 to 1500m
200 to 500 ft
< 800m
< 200 ft
Symbols :   Thunderstorms  Fog  Heavy snow  Heavy precipitations  Wind > 20 kt






- Airport Elevation : 2272 ft
- IATA code : HTA


UIAA - Chita-Kadala

CURRENT METAR :
  • 020600Z 33006MPS 9999 NSC M06/M21 Q1009 R29/410160 NOSIG RMK QFE698/0931

EXPIRED METARs :
  • 020530Z 34005G11MPS 9999 NSC M06/M21 Q1009 R29/410160 NOSIG RMK QFE698/0931
  • 020500Z 33007MPS 9999 NSC M06/M21 Q1009 R29/410160 NOSIG RMK QFE698/0931
  • 020430Z 06003MPS 360V100 9999 NSC M07/M19 Q1009 R29/410160 NOSIG RMK QFE699/0932
  • 012100Z 00000MPS 9999 SCT043 M14/M20 Q1010 R29/410160 NOSIG RMK QFE699/0932
  • 020400Z VRB01MPS 9999 NSC M07/M20 Q1010 R29/410160 NOSIG RMK QFE699/0932
  • 020330Z 09002MPS 050V140 9999 NSC M08/M19 Q1010 R29/410160 NOSIG RMK QFE699/0932
  • 020300Z 11002MPS 070V150 9999 NSC M08/M19 Q1010 R29/410160 NOSIG RMK QFE699/0932
  • 020230Z VRB01MPS 9999 NSC M09/M20 Q1010 R29/410160 NOSIG RMK QFE699/0933
  • 020200Z 00000MPS 9999 NSC M09/M19 Q1010 R29/410160 NOSIG RMK QFE699/0933
  • 020130Z VRB01MPS 9999 NSC M11/M19 Q1010 R29/410160 NOSIG RMK QFE699/0933

TAF TAF UIAA
Valid from the 02 at 06:00 until the 03 at 06:00 UTC


020500Z 0206/0306 34008G13MPS 9999 SCT040CB
TEMPO 0206/0213 28003G08MPS
BECMG 0213/0214 27003G08MPS
UIAA FIR / Asia



MET'MAP, your aeronautical weather chart ! - Copyright ORBIFLY December 2007 - Disclaimer

ORBIFLY MET'MAP TEAM :

Programming & Development : Alexandra Zaïnal
Original concept : Baudouin d'Aumeries
Technical & hardware support : Manuel Goepfert
Assistance : Marc-Olivier Méhu




SOURCES & CREDITS :

   NOAA       Earth
Advisory